WJA250 CYYC-CYEG
Flight info
| Callsign | WJA250 |
|---|---|
| Flight time | 0h 28m |
| Altitude | 22000 |
| Route | STAMP2/17L BITGA Q995 OILRS OILRS2 |
| Aircraft | B738/M-SDE2E3FGHIRWXY/LB1 |
Departure
| Time | 2026-05-06 02:27 |
|---|---|
| Airport | Calgary International Airport (CYYC) |
Arrival
| Time | 2026-05-06 02:55 |
|---|---|
| Airport | Edmonton International Airport (CYEG) |
| Time | Latitude | Longitude | Altitude | Speed | Heading |
|---|---|---|---|---|---|
| 2026-05-06 02:12 | 51.13278 | -114.01592 | 3558 ft | 0 kts | 90° |
| 2026-05-06 02:17 | 51.13279 | -114.01629 | 3558 ft | 4 kts | 98° |
| 2026-05-06 02:17 | 51.13285 | -114.01670 | 3557 ft | 4 kts | 114° |
| 2026-05-06 02:18 | 51.13299 | -114.01705 | 3557 ft | 4 kts | 142° |
| 2026-05-06 02:18 | 51.13317 | -114.01719 | 3557 ft | 1 kts | 180° |
| 2026-05-06 02:18 | 51.13318 | -114.01719 | 3558 ft | 1 kts | 180° |
| 2026-05-06 02:20 | 51.13316 | -114.01719 | 3558 ft | 2 kts | 180° |
| 2026-05-06 02:20 | 51.13260 | -114.01719 | 3557 ft | 14 kts | 179° |
| 2026-05-06 02:20 | 51.13159 | -114.01720 | 3557 ft | 14 kts | 182° |
| 2026-05-06 02:21 | 51.13073 | -114.01788 | 3557 ft | 14 kts | 199° |
| 2026-05-06 02:21 | 51.12979 | -114.01796 | 3558 ft | 13 kts | 180° |
| 2026-05-06 02:21 | 51.12884 | -114.01795 | 3557 ft | 17 kts | 179° |
| 2026-05-06 02:21 | 51.12725 | -114.01794 | 3558 ft | 28 kts | 180° |
| 2026-05-06 02:22 | 51.12538 | -114.01795 | 3558 ft | 26 kts | 179° |
| 2026-05-06 02:22 | 51.12362 | -114.01794 | 3558 ft | 25 kts | 180° |
| 2026-05-06 02:22 | 51.12197 | -114.01795 | 3558 ft | 23 kts | 180° |
| 2026-05-06 02:22 | 51.12040 | -114.01794 | 3559 ft | 22 kts | 179° |
| 2026-05-06 02:23 | 51.11887 | -114.01797 | 3558 ft | 22 kts | 181° |
| 2026-05-06 02:23 | 51.11738 | -114.01797 | 3556 ft | 21 kts | 180° |
| 2026-05-06 02:23 | 51.11593 | -114.01798 | 3558 ft | 20 kts | 180° |
| 2026-05-06 02:23 | 51.11453 | -114.01797 | 3558 ft | 20 kts | 179° |
| 2026-05-06 02:24 | 51.11318 | -114.01798 | 3557 ft | 20 kts | 180° |
| 2026-05-06 02:24 | 51.11120 | -114.01795 | 3558 ft | 36 kts | 179° |
| 2026-05-06 02:24 | 51.10853 | -114.01787 | 3558 ft | 38 kts | 180° |
| 2026-05-06 02:24 | 51.10601 | -114.01790 | 3558 ft | 34 kts | 180° |
| 2026-05-06 02:25 | 51.10376 | -114.01795 | 3558 ft | 34 kts | 181° |
| 2026-05-06 02:25 | 51.10144 | -114.01787 | 3558 ft | 32 kts | 177° |
| 2026-05-06 02:25 | 51.09929 | -114.01792 | 3558 ft | 30 kts | 181° |
| 2026-05-06 02:25 | 51.09741 | -114.01800 | 3558 ft | 20 kts | 194° |
| 2026-05-06 02:26 | 51.09690 | -114.01938 | 3558 ft | 13 kts | 267° |
| 2026-05-06 02:26 | 51.09696 | -114.02083 | 3560 ft | 16 kts | 291° |
| 2026-05-06 02:26 | 51.09870 | -114.02140 | 3558 ft | 49 kts | 0° |
| 2026-05-06 02:26 | 51.10427 | -114.02134 | 3554 ft | 110 kts | 1° |
| 2026-05-06 02:27 | 51.11363 | -114.02114 | 3564 ft | 160 kts | 0° |
| 2026-05-06 02:27 | 51.12553 | -114.02053 | 3881 ft | 181 kts | 6° |
| 2026-05-06 02:27 | 51.13861 | -114.01935 | 4375 ft | 200 kts | 6° |
| 2026-05-06 02:27 | 51.15250 | -114.01795 | 5090 ft | 198 kts | 6° |
| 2026-05-06 02:28 | 51.16630 | -114.01617 | 5706 ft | 205 kts | 7° |
| 2026-05-06 02:28 | 51.18126 | -114.01381 | 5935 ft | 227 kts | 8° |
| 2026-05-06 02:28 | 51.19791 | -114.01049 | 6111 ft | 256 kts | 8° |
| 2026-05-06 02:28 | 51.21611 | -114.00649 | 6679 ft | 265 kts | 8° |
| 2026-05-06 02:29 | 51.23438 | -114.00326 | 7530 ft | 267 kts | 4° |
| 2026-05-06 02:29 | 51.25312 | -114.00100 | 8221 ft | 273 kts | 2° |
| 2026-05-06 02:29 | 51.27168 | -113.99909 | 9378 ft | 258 kts | 1° |
| 2026-05-06 02:29 | 51.28931 | -113.99732 | 10453 ft | 251 kts | 0° |
| 2026-05-06 02:30 | 51.30688 | -113.99574 | 11034 ft | 261 kts | 0° |
| 2026-05-06 02:30 | 51.32588 | -113.99414 | 11221 ft | 285 kts | 0° |
| 2026-05-06 02:30 | 51.34642 | -113.99215 | 11462 ft | 307 kts | 1° |
| 2026-05-06 02:30 | 51.36848 | -113.98972 | 11628 ft | 328 kts | 2° |
| 2026-05-06 02:31 | 51.39191 | -113.98691 | 11825 ft | 346 kts | 2° |
| 2026-05-06 02:31 | 51.41620 | -113.98384 | 12359 ft | 352 kts | 2° |
| 2026-05-06 02:31 | 51.44058 | -113.98068 | 13137 ft | 351 kts | 2° |
| 2026-05-06 02:31 | 51.46488 | -113.97752 | 13982 ft | 350 kts | 2° |
| 2026-05-06 02:32 | 51.48923 | -113.97425 | 14665 ft | 352 kts | 4° |
| 2026-05-06 02:32 | 51.51354 | -113.96770 | 15293 ft | 357 kts | 10° |
| 2026-05-06 02:32 | 51.53787 | -113.95867 | 15897 ft | 361 kts | 11° |
| 2026-05-06 02:32 | 51.56246 | -113.94952 | 16536 ft | 363 kts | 11° |
| 2026-05-06 02:33 | 51.58691 | -113.94069 | 17173 ft | 366 kts | 10° |
| 2026-05-06 02:33 | 51.60371 | -113.93473 | 17599 ft | 367 kts | 10° |
| 2026-05-06 02:33 | 51.66210 | -113.91279 | 18948 ft | 374 kts | 12° |
| 2026-05-06 02:34 | 51.68746 | -113.90256 | 19464 ft | 376 kts | 12° |
| 2026-05-06 02:34 | 51.71294 | -113.89222 | 20062 ft | 378 kts | 12° |
| 2026-05-06 02:34 | 51.73841 | -113.88188 | 20678 ft | 377 kts | 12° |
| 2026-05-06 02:34 | 51.76394 | -113.87154 | 21161 ft | 380 kts | 12° |
| 2026-05-06 02:35 | 51.78977 | -113.86111 | 21523 ft | 386 kts | 11° |
| 2026-05-06 02:35 | 51.81607 | -113.85051 | 21826 ft | 392 kts | 11° |
| 2026-05-06 02:35 | 51.84263 | -113.83980 | 22199 ft | 395 kts | 11° |
| 2026-05-06 02:35 | 51.86954 | -113.82894 | 22212 ft | 400 kts | 11° |
| 2026-05-06 02:36 | 51.89669 | -113.81798 | 22220 ft | 404 kts | 11° |
| 2026-05-06 02:36 | 51.92390 | -113.80697 | 22218 ft | 402 kts | 11° |
| 2026-05-06 02:36 | 51.95096 | -113.79600 | 22222 ft | 401 kts | 11° |
| 2026-05-06 02:36 | 51.97803 | -113.78501 | 22227 ft | 401 kts | 11° |
| 2026-05-06 02:37 | 52.00504 | -113.77404 | 22228 ft | 401 kts | 11° |
| 2026-05-06 02:37 | 52.03211 | -113.76304 | 22159 ft | 401 kts | 11° |
| 2026-05-06 02:37 | 52.05916 | -113.75204 | 22157 ft | 401 kts | 11° |
| 2026-05-06 02:37 | 52.08627 | -113.74100 | 22129 ft | 402 kts | 11° |
| 2026-05-06 02:38 | 52.11344 | -113.72992 | 22169 ft | 403 kts | 11° |
| 2026-05-06 02:38 | 52.14066 | -113.71880 | 22149 ft | 403 kts | 11° |
| 2026-05-06 02:38 | 52.16787 | -113.70767 | 22141 ft | 402 kts | 11° |
| 2026-05-06 02:38 | 52.19456 | -113.69671 | 22120 ft | 388 kts | 11° |
| 2026-05-06 02:39 | 52.22041 | -113.68608 | 21689 ft | 377 kts | 11° |
| 2026-05-06 02:39 | 52.24565 | -113.67570 | 21162 ft | 371 kts | 11° |
| 2026-05-06 02:39 | 52.27049 | -113.66550 | 20609 ft | 366 kts | 11° |
| 2026-05-06 02:39 | 52.29508 | -113.65540 | 20046 ft | 362 kts | 12° |
| 2026-05-06 02:40 | 52.31937 | -113.64540 | 19494 ft | 358 kts | 12° |
| 2026-05-06 02:40 | 52.34347 | -113.63548 | 18952 ft | 355 kts | 12° |
| 2026-05-06 02:40 | 52.36704 | -113.62575 | 18388 ft | 353 kts | 12° |
| 2026-05-06 02:40 | 52.39109 | -113.61583 | 17775 ft | 350 kts | 12° |
| 2026-05-06 02:41 | 52.41461 | -113.60610 | 17221 ft | 347 kts | 12° |
| 2026-05-06 02:41 | 52.43763 | -113.59656 | 16686 ft | 344 kts | 12° |
| 2026-05-06 02:41 | 52.46074 | -113.58698 | 16158 ft | 341 kts | 11° |
| 2026-05-06 02:41 | 52.48370 | -113.57745 | 15645 ft | 339 kts | 11° |
| 2026-05-06 02:42 | 52.50647 | -113.56799 | 15121 ft | 337 kts | 11° |
| 2026-05-06 02:42 | 52.52913 | -113.55857 | 14635 ft | 335 kts | 12° |
| 2026-05-06 02:42 | 52.55167 | -113.54919 | 14070 ft | 334 kts | 12° |
| 2026-05-06 02:42 | 52.57433 | -113.53976 | 13392 ft | 336 kts | 12° |
| 2026-05-06 02:43 | 52.59687 | -113.53035 | 12863 ft | 333 kts | 12° |
| 2026-05-06 02:43 | 52.61943 | -113.52209 | 12330 ft | 330 kts | 6° |
| 2026-05-06 02:43 | 52.64230 | -113.51974 | 11679 ft | 331 kts | 357° |
| 2026-05-06 02:43 | 52.66525 | -113.52176 | 11216 ft | 328 kts | 356° |
| 2026-05-06 02:44 | 52.68758 | -113.52384 | 11086 ft | 316 kts | 356° |
| 2026-05-06 02:44 | 52.70918 | -113.52581 | 10923 ft | 305 kts | 356° |
| 2026-05-06 02:44 | 52.73007 | -113.52767 | 10790 ft | 296 kts | 356° |
| 2026-05-06 02:44 | 52.75027 | -113.52944 | 10659 ft | 286 kts | 356° |
| 2026-05-06 02:45 | 52.76985 | -113.53113 | 10545 ft | 277 kts | 356° |
| 2026-05-06 02:45 | 52.78883 | -113.53275 | 10427 ft | 269 kts | 356° |
| 2026-05-06 02:45 | 52.80725 | -113.53431 | 10312 ft | 261 kts | 356° |
| 2026-05-06 02:45 | 52.82509 | -113.53583 | 10208 ft | 253 kts | 356° |
| 2026-05-06 02:46 | 52.84241 | -113.53729 | 10099 ft | 246 kts | 356° |
| 2026-05-06 02:46 | 52.85944 | -113.53874 | 9839 ft | 244 kts | 356° |
| 2026-05-06 02:46 | 52.87634 | -113.54017 | 9579 ft | 243 kts | 356° |
| 2026-05-06 02:46 | 52.89314 | -113.54160 | 9325 ft | 242 kts | 356° |
| 2026-05-06 02:47 | 52.90994 | -113.54302 | 9061 ft | 243 kts | 356° |
| 2026-05-06 02:47 | 52.92698 | -113.54447 | 8807 ft | 248 kts | 356° |
| 2026-05-06 02:47 | 52.94424 | -113.54594 | 8546 ft | 255 kts | 357° |
| 2026-05-06 02:47 | 52.96220 | -113.54746 | 8272 ft | 261 kts | 356° |
| 2026-05-06 02:48 | 52.98029 | -113.54899 | 7991 ft | 260 kts | 357° |
| 2026-05-06 02:48 | 52.99810 | -113.55050 | 7872 ft | 252 kts | 357° |
| 2026-05-06 02:48 | 53.01540 | -113.55197 | 7735 ft | 245 kts | 357° |
| 2026-05-06 02:48 | 53.03202 | -113.55339 | 7642 ft | 231 kts | 357° |
| 2026-05-06 02:49 | 53.04755 | -113.55286 | 7456 ft | 219 kts | 15° |
| 2026-05-06 02:49 | 53.06093 | -113.54250 | 7284 ft | 208 kts | 26° |
| 2026-05-06 02:49 | 53.07375 | -113.53175 | 7007 ft | 205 kts | 26° |
| 2026-05-06 02:49 | 53.08641 | -113.52128 | 6783 ft | 201 kts | 25° |
| 2026-05-06 02:50 | 53.09877 | -113.51101 | 6526 ft | 196 kts | 26° |
| 2026-05-06 02:50 | 53.11120 | -113.50068 | 5912 ft | 208 kts | 27° |
| 2026-05-06 02:50 | 53.12377 | -113.49022 | 5664 ft | 195 kts | 27° |
| 2026-05-06 02:50 | 53.13540 | -113.48053 | 5457 ft | 179 kts | 27° |
| 2026-05-06 02:51 | 53.14625 | -113.47149 | 5312 ft | 172 kts | 28° |
| 2026-05-06 02:51 | 53.15689 | -113.46260 | 5141 ft | 172 kts | 28° |
| 2026-05-06 02:51 | 53.16731 | -113.45408 | 5061 ft | 164 kts | 27° |
| 2026-05-06 02:51 | 53.17770 | -113.44591 | 4856 ft | 164 kts | 24° |
| 2026-05-06 02:52 | 53.18834 | -113.43988 | 4701 ft | 161 kts | 16° |
| 2026-05-06 02:52 | 53.19973 | -113.43898 | 4431 ft | 168 kts | 352° |
| 2026-05-06 02:52 | 53.20723 | -113.44228 | 4312 ft | 170 kts | 341° |
| 2026-05-06 02:52 | 53.22096 | -113.45527 | 4110 ft | 171 kts | 315° |
| 2026-05-06 02:53 | 53.22651 | -113.46449 | 4027 ft | 170 kts | 318° |
| 2026-05-06 02:53 | 53.23568 | -113.47708 | 3858 ft | 172 kts | 322° |
| 2026-05-06 02:53 | 53.24711 | -113.49537 | 3640 ft | 172 kts | 313° |
| 2026-05-06 02:53 | 53.25527 | -113.51026 | 3390 ft | 174 kts | 316° |
| 2026-05-06 02:54 | 53.26110 | -113.51980 | 3196 ft | 173 kts | 316° |
| 2026-05-06 02:54 | 53.27206 | -113.53858 | 2859 ft | 168 kts | 315° |
| 2026-05-06 02:54 | 53.27767 | -113.54778 | 2669 ft | 166 kts | 316° |
| 2026-05-06 02:54 | 53.28574 | -113.56126 | 2460 ft | 160 kts | 314° |
| 2026-05-06 02:55 | 53.29316 | -113.57391 | 2383 ft | 137 kts | 316° |
| 2026-05-06 02:55 | 53.29886 | -113.58338 | 2384 ft | 94 kts | 315° |
| 2026-05-06 02:55 | 53.30240 | -113.58921 | 2384 ft | 51 kts | 316° |
| 2026-05-06 02:55 | 53.30450 | -113.59275 | 2385 ft | 41 kts | 316° |
| 2026-05-06 02:56 | 53.30611 | -113.59496 | 2381 ft | 22 kts | 354° |
| 2026-05-06 02:56 | 53.30707 | -113.59420 | 2383 ft | 13 kts | 39° |
| 2026-05-06 02:56 | 53.30737 | -113.59269 | 2383 ft | 15 kts | 89° |
| 2026-05-06 02:56 | 53.30740 | -113.59104 | 2383 ft | 14 kts | 88° |
| 2026-05-06 02:57 | 53.30746 | -113.58954 | 2383 ft | 12 kts | 85° |
| 2026-05-06 02:57 | 53.30782 | -113.58888 | 2386 ft | 7 kts | 13° |
| 2026-05-06 02:57 | 53.30819 | -113.58883 | 2383 ft | 5 kts | 6° |
| 2026-05-06 02:57 | 53.30844 | -113.58851 | 2383 ft | 5 kts | 59° |
| 2026-05-06 02:58 | 53.30859 | -113.58780 | 2383 ft | 8 kts | 81° |
| 2026-05-06 02:58 | 53.30862 | -113.58685 | 2387 ft | 5 kts | 86° |
| 2026-05-06 02:58 | 53.30863 | -113.58649 | 2383 ft | 3 kts | 85° |
| 2026-05-06 02:58 | 53.30865 | -113.58620 | 2383 ft | 2 kts | 86° |
| 2026-05-06 02:59 | 53.30865 | -113.58608 | 2383 ft | 1 kts | 86° |
| 2026-05-06 02:59 | 53.30865 | -113.58601 | 2383 ft | 0 kts | 86° |